Terminal Aerodrome Forecast
Issued by NWS

Home | Current Version | Previous Version | Graphics & Text | Print | Product List | Glossary On
Versions: 1 2 3 4 5 6 7 8 9 10 11 12 13 14 15 16 17 18
000
FTUS43 KLSX 201700
TAFSUS
TAF
KSUS 201724Z 2018/2118 24010KT P6SM SCT040 BKN250
     FM210300 24006KT P6SM VCTS SCT040CB BKN070
     FM210900 30007KT P6SM SCT040
     FM211500 32012G18KT P6SM FEW040=

USA.gov is the U.S. government's official web portal to all federal, state and local government web resources and services.